Time;durP1;ratioP1;P1;durP2;ratioP2;P2;SDS_P1;SDS_P2;PMS_P1;PMS_P2;Temp;Humidity;BMP_temperature;BMP_pressure;BME280_temperature;BME280_humidity;BME280_pressure;Samples;Min_cycle;Max_cycle;Signal;HPM_P1;HPM_P2
2021/11/22 00:00:12;;;;;;;4.80;1.77;;;4.90;99.90;;;;;;4986197;28;20422;-85
2021/11/22 00:02:38;;;;;;;5.70;1.60;;;4.90;99.90;;;;;;5002230;28;20042;-85
2021/11/22 00:05:04;;;;;;;7.97;1.95;;;4.90;99.90;;;;;;5005644;28;20033;-85
2021/11/22 00:07:30;;;;;;;4.95;1.75;;;4.90;99.90;;;;;;4997608;28;20519;-85
2021/11/22 00:09:55;;;;;;;10.27;1.90;;;4.80;99.90;;;;;;4999163;28;20075;-85
2021/11/22 00:12:21;;;;;;;7.85;1.67;;;4.80;99.90;;;;;;4995110;28;20041;-85
2021/11/22 00:14:47;;;;;;;5.20;1.70;;;4.80;99.90;;;;;;4987773;28;20041;-85
2021/11/22 00:17:13;;;;;;;5.10;1.60;;;4.80;99.90;;;;;;4987794;28;20048;-86
2021/11/22 00:19:39;;;;;;;5.63;1.77;;;4.70;99.90;;;;;;4987295;28;20404;-85
2021/11/22 00:22:05;;;;;;;6.93;1.80;;;4.70;99.90;;;;;;4994627;28;20029;-85
2021/11/22 00:24:31;;;;;;;3.80;1.63;;;4.70;99.90;;;;;;5010325;28;20037;-85
2021/11/22 00:26:58;;;;;;;5.25;1.92;;;4.70;99.90;;;;;;5002045;28;20059;-85
2021/11/22 00:29:23;;;;;;;3.20;1.42;;;4.70;99.90;;;;;;5009778;28;20046;-85
2021/11/22 00:31:51;;;;;;;6.18;1.98;;;4.60;99.90;;;;;;5003693;28;20037;-85
2021/11/22 00:34:17;;;;;;;5.78;1.75;;;4.60;99.90;;;;;;5003570;28;20064;-85
2021/11/22 00:36:43;;;;;;;10.05;1.80;;;4.60;99.90;;;;;;5008510;28;20045;-85
2021/11/22 00:39:08;;;;;;;7.47;1.65;;;4.50;99.90;;;;;;4984208;28;20033;-85
2021/11/22 00:41:34;;;;;;;4.82;1.65;;;4.50;99.90;;;;;;5010491;28;20120;-85
2021/11/22 00:44:00;;;;;;;8.30;2.20;;;4.50;99.90;;;;;;4998963;28;20404;-85
2021/11/22 00:46:26;;;;;;;4.07;1.60;;;4.50;99.90;;;;;;4992847;28;20041;-85
2021/11/22 00:48:52;;;;;;;7.28;1.85;;;4.40;99.90;;;;;;4979038;28;20500;-85
2021/11/22 00:51:18;;;;;;;6.30;1.60;;;4.40;99.90;;;;;;4997738;28;20077;-85
2021/11/22 00:53:43;;;;;;;5.10;1.60;;;4.40;99.90;;;;;;4992483;28;20059;-85
2021/11/22 00:56:09;;;;;;;9.63;1.85;;;4.40;99.90;;;;;;5001163;28;20092;-85
2021/11/22 00:58:35;;;;;;;9.52;1.60;;;4.40;99.90;;;;;;4986596;28;20205;-85
2021/11/22 01:01:01;;;;;;;5.43;1.50;;;4.40;99.90;;;;;;5003814;28;20085;-85
2021/11/22 01:03:26;;;;;;;5.65;1.48;;;4.40;99.90;;;;;;4996572;28;20033;-85
2021/11/22 01:05:52;;;;;;;5.22;1.80;;;4.40;99.90;;;;;;4993516;28;20072;-85
2021/11/22 01:08:17;;;;;;;6.18;1.52;;;4.40;99.90;;;;;;4999212;28;20033;-85
2021/11/22 01:10:44;;;;;;;6.00;1.50;;;4.50;99.90;;;;;;4993317;28;20501;-85
2021/11/22 01:13:11;;;;;;;6.78;2.45;;;4.40;99.90;;;;;;4997492;28;20048;-85
2021/11/22 01:15:37;;;;;;;6.05;1.67;;;4.40;99.90;;;;;;4998857;28;20046;-85
2021/11/22 01:18:03;;;;;;;10.68;1.90;;;4.30;99.90;;;;;;4987240;28;20037;-85
2021/11/22 01:20:32;;;;;;;8.35;1.63;;;4.30;99.90;;;;;;5008145;28;20030;-85
2021/11/22 01:23:00;;;;;;;7.75;2.22;;;4.30;99.90;;;;;;5000569;28;20038;-85
2021/11/22 01:25:26;;;;;;;6.50;1.42;;;4.30;99.90;;;;;;4993978;28;20508;-85
2021/11/22 01:27:52;;;;;;;7.88;1.80;;;4.30;99.90;;;;;;4994747;28;20042;-85
2021/11/22 01:30:19;;;;;;;5.68;1.65;;;4.30;99.90;;;;;;4995935;28;20037;-85
2021/11/22 01:32:46;;;;;;;6.88;1.67;;;4.40;99.90;;;;;;5012463;28;20515;-85
2021/11/22 01:35:12;;;;;;;9.57;2.00;;;4.30;99.90;;;;;;5010506;28;20045;-85
2021/11/22 01:37:38;;;;;;;2.05;1.17;;;4.30;99.90;;;;;;5004665;28;20061;-85
2021/11/22 01:40:06;;;;;;;4.78;1.60;;;4.30;99.90;;;;;;5005157;28;20033;-85
2021/11/22 01:42:31;;;;;;;7.30;1.90;;;4.40;99.90;;;;;;5010404;28;20025;-85
2021/11/22 01:44:57;;;;;;;6.30;1.98;;;4.40;99.90;;;;;;5003589;28;20084;-85
2021/11/22 01:47:23;;;;;;;6.70;1.58;;;4.30;99.90;;;;;;5002677;28;20033;-85
2021/11/22 01:49:48;;;;;;;7.38;1.58;;;4.30;99.90;;;;;;4980527;28;20499;-85
2021/11/22 01:52:14;;;;;;;11.52;1.90;;;4.30;99.90;;;;;;4988524;28;20037;-85
2021/11/22 01:54:40;;;;;;;7.00;1.58;;;4.30;99.90;;;;;;5005896;28;20041;-85
2021/11/22 01:57:06;;;;;;;4.97;1.70;;;4.20;99.90;;;;;;4991105;28;20050;-86
2021/11/22 01:59:32;;;;;;;8.60;1.80;;;4.20;99.90;;;;;;5000142;28;20037;-84
2021/11/22 02:01:58;;;;;;;6.93;1.85;;;4.20;99.90;;;;;;4983357;28;20108;-85
2021/11/22 02:04:24;;;;;;;4.97;1.60;;;4.10;99.90;;;;;;4999680;28;20030;-85
2021/11/22 02:06:49;;;;;;;6.40;1.80;;;4.20;99.90;;;;;;4979225;28;20428;-85
2021/11/22 02:09:15;;;;;;;8.52;1.67;;;4.10;99.90;;;;;;4994925;28;20519;-85
2021/11/22 02:11:41;;;;;;;2.53;1.48;;;4.10;99.90;;;;;;4980919;28;20034;-85
2021/11/22 02:14:07;;;;;;;7.60;1.70;;;4.10;99.90;;;;;;4984545;28;20073;-85
2021/11/22 02:16:34;;;;;;;5.43;1.70;;;4.10;99.90;;;;;;5000916;28;20535;-85
2021/11/22 02:19:01;;;;;;;5.45;1.38;;;4.10;99.90;;;;;;5008010;28;20045;-85
2021/11/22 02:21:27;;;;;;;9.55;2.03;;;4.10;99.90;;;;;;4995929;28;20061;-85
2021/11/22 02:23:53;;;;;;;8.70;1.80;;;4.10;99.90;;;;;;5010785;28;20183;-85
2021/11/22 02:26:20;;;;;;;5.75;1.65;;;4.20;99.90;;;;;;5002299;28;20507;-85
2021/11/22 02:28:45;;;;;;;7.82;1.70;;;4.20;99.90;;;;;;4991598;28;20045;-85
2021/11/22 02:31:12;;;;;;;8.48;1.80;;;4.20;99.90;;;;;;5009504;28;20485;-85
2021/11/22 02:33:38;;;;;;;7.28;1.60;;;4.20;99.90;;;;;;5003461;28;20042;-85
2021/11/22 02:36:04;;;;;;;8.90;1.75;;;4.20;99.90;;;;;;5008299;28;20040;-85
2021/11/22 02:38:36;;;;;;;7.45;1.58;;;4.10;99.90;;;;;;5002848;28;20124;-84
2021/11/22 02:41:04;;;;;;;7.20;1.85;;;4.20;99.90;;;;;;5015047;28;20026;-85
2021/11/22 02:43:32;;;;;;;6.63;1.83;;;4.20;99.90;;;;;;5013758;28;20026;-85
2021/11/22 02:45:58;;;;;;;6.78;1.80;;;4.20;99.90;;;;;;5003003;28;20041;-85
2021/11/22 02:48:24;;;;;;;6.90;2.25;;;4.20;99.90;;;;;;4998617;28;20458;-85
2021/11/22 02:50:50;;;;;;;8.77;2.20;;;4.10;99.90;;;;;;5005023;28;20042;-85
2021/11/22 02:53:16;;;;;;;4.65;1.80;;;4.10;99.90;;;;;;5007980;28;20049;-85
2021/11/22 02:55:41;;;;;;;10.88;1.75;;;4.20;99.90;;;;;;4996940;28;20506;-84
2021/11/22 02:58:07;;;;;;;6.55;1.85;;;4.20;99.90;;;;;;4996593;28;20038;-85
2021/11/22 03:00:36;;;;;;;7.53;1.70;;;4.20;99.90;;;;;;4996675;28;20029;-85
2021/11/22 03:03:02;;;;;;;6.60;1.67;;;4.10;99.90;;;;;;4986760;28;20029;-85
2021/11/22 03:05:28;;;;;;;6.13;1.70;;;4.10;99.90;;;;;;4998655;28;20033;-85
2021/11/22 03:07:56;;;;;;;6.18;1.60;;;4.10;99.90;;;;;;5000771;28;20049;-85
2021/11/22 03:10:25;;;;;;;6.22;1.60;;;4.00;99.90;;;;;;5005586;28;20044;-85
2021/11/22 03:12:51;;;;;;;9.68;1.70;;;4.10;99.90;;;;;;4980406;28;20124;-84
2021/11/22 03:15:18;;;;;;;7.85;1.80;;;4.00;99.90;;;;;;5004391;28;20470;-85
2021/11/22 03:17:45;;;;;;;7.10;1.60;;;4.00;99.90;;;;;;5005141;28;20046;-85
2021/11/22 03:20:13;;;;;;;9.25;1.60;;;3.90;99.90;;;;;;4998437;28;20446;-85
2021/11/22 03:22:40;;;;;;;7.57;2.05;;;3.90;99.90;;;;;;5013058;28;20487;-85
2021/11/22 03:25:07;;;;;;;5.85;1.73;;;3.90;99.90;;;;;;5000729;28;20052;-85
2021/11/22 03:27:34;;;;;;;6.25;1.90;;;3.80;99.90;;;;;;5006207;28;20052;-85
2021/11/22 03:29:59;;;;;;;7.22;1.98;;;3.90;99.90;;;;;;4992433;28;20049;-85
2021/11/22 03:32:25;;;;;;;5.90;1.70;;;3.90;99.90;;;;;;4984192;28;20405;-85
2021/11/22 03:34:51;;;;;;;7.38;1.98;;;3.90;99.90;;;;;;4998439;28;20045;-85
2021/11/22 03:37:17;;;;;;;6.43;1.63;;;3.90;99.90;;;;;;4998377;28;20461;-85
2021/11/22 03:39:49;;;;;;;8.05;1.75;;;3.80;99.90;;;;;;5012429;28;20042;-85
2021/11/22 03:42:16;;;;;;;10.02;2.17;;;3.70;99.90;;;;;;4988005;28;20040;-85
2021/11/22 03:44:43;;;;;;;8.30;2.03;;;3.70;99.90;;;;;;4988606;28;20042;-85
2021/11/22 03:47:10;;;;;;;6.47;1.70;;;3.60;99.90;;;;;;5008225;28;20045;-84
2021/11/22 03:49:35;;;;;;;7.55;1.80;;;3.60;99.90;;;;;;5001696;28;20049;-85
2021/11/22 03:52:02;;;;;;;12.02;1.45;;;3.60;99.90;;;;;;5009284;28;20511;-85
2021/11/22 03:54:28;;;;;;;6.38;1.77;;;3.60;99.90;;;;;;4993398;28;20088;-84
2021/11/22 03:56:54;;;;;;;5.50;1.52;;;3.50;99.90;;;;;;5001407;28;20381;-84
2021/11/22 03:59:20;;;;;;;10.02;1.65;;;3.50;99.90;;;;;;4998264;28;20396;-85
2021/11/22 04:01:45;;;;;;;8.00;1.70;;;3.50;99.90;;;;;;4989375;28;20111;-85
2021/11/22 04:04:11;;;;;;;6.57;1.55;;;3.50;99.90;;;;;;4997776;28;20116;-84
2021/11/22 04:06:37;;;;;;;6.57;1.75;;;3.50;99.90;;;;;;5009874;28;20057;-85
2021/11/22 04:09:04;;;;;;;8.23;1.52;;;3.50;99.90;;;;;;4982221;28;20388;-84
2021/11/22 04:11:30;;;;;;;4.80;1.60;;;3.50;99.90;;;;;;4984281;28;20415;-84
2021/11/22 04:13:56;;;;;;;3.53;1.50;;;3.50;99.90;;;;;;4997278;28;20053;-84
2021/11/22 04:16:22;;;;;;;5.45;1.40;;;3.50;99.90;;;;;;5002165;28;20038;-84
2021/11/22 04:18:49;;;;;;;5.50;1.40;;;3.50;99.90;;;;;;5008446;28;20038;-84
2021/11/22 04:21:20;;;;;;;7.25;1.70;;;3.50;99.90;;;;;;5007654;28;20037;-84
2021/11/22 04:23:46;;;;;;;4.15;1.80;;;3.50;99.90;;;;;;4990734;28;20038;-84
2021/11/22 04:26:12;;;;;;;4.88;1.60;;;3.50;99.90;;;;;;4997415;28;20038;-84
2021/11/22 04:28:39;;;;;;;5.05;1.50;;;3.40;99.90;;;;;;4986553;28;20037;-84
2021/11/22 04:31:05;;;;;;;7.00;1.60;;;3.50;99.90;;;;;;5006511;28;20034;-85
2021/11/22 04:33:31;;;;;;;3.50;1.60;;;3.50;99.90;;;;;;5010000;28;20396;-84
2021/11/22 04:35:57;;;;;;;6.57;1.58;;;3.40;99.90;;;;;;5000050;28;20041;-84
2021/11/22 04:38:23;;;;;;;7.43;1.70;;;3.40;99.90;;;;;;5005190;28;20038;-85
2021/11/22 04:40:48;;;;;;;6.90;1.42;;;3.40;99.90;;;;;;5006886;28;20029;-85
2021/11/22 04:43:15;;;;;;;5.60;1.40;;;3.40;99.90;;;;;;4987951;28;20055;-84
2021/11/22 04:45:40;;;;;;;6.93;1.75;;;3.30;99.90;;;;;;5000860;28;20084;-84
2021/11/22 04:48:06;;;;;;;7.45;1.55;;;3.30;99.90;;;;;;5004397;28;20584;-85
2021/11/22 04:50:33;;;;;;;5.93;1.63;;;3.30;99.90;;;;;;5005189;28;20036;-84
2021/11/22 04:53:01;;;;;;;5.60;1.50;;;3.30;99.90;;;;;;4981767;28;20049;-84
2021/11/22 04:55:27;;;;;;;2.95;1.20;;;3.30;99.90;;;;;;5005155;28;20048;-85
2021/11/22 04:57:54;;;;;;;6.05;1.30;;;3.30;99.90;;;;;;5009325;28;20037;-84
2021/11/22 05:00:22;;;;;;;3.28;1.42;;;3.30;99.90;;;;;;5002575;28;20496;-85
2021/11/22 05:02:48;;;;;;;3.85;1.52;;;3.20;99.90;;;;;;5006750;28;20048;-85
2021/11/22 05:05:16;;;;;;;5.25;2.20;;;3.20;99.90;;;;;;4995425;28;20071;-85
2021/11/22 05:07:42;;;;;;;8.13;1.42;;;3.10;99.90;;;;;;5012772;28;20045;-84
2021/11/22 05:10:09;;;;;;;5.80;1.60;;;3.10;99.90;;;;;;5004825;28;20139;-84
2021/11/22 05:12:34;;;;;;;5.07;1.20;;;3.00;99.90;;;;;;4989441;28;20442;-84
2021/11/22 05:15:00;;;;;;;4.60;1.50;;;3.10;99.90;;;;;;5010765;28;20034;-84
2021/11/22 05:17:26;;;;;;;6.35;1.40;;;3.00;99.90;;;;;;5011401;28;20107;-85
2021/11/22 05:19:51;;;;;;;5.07;1.42;;;3.00;99.90;;;;;;4982761;28;20029;-84
2021/11/22 05:22:19;;;;;;;4.82;1.27;;;2.90;99.90;;;;;;4996378;28;20033;-85
2021/11/22 05:24:49;;;;;;;3.47;1.35;;;2.90;99.90;;;;;;4980317;28;20042;-85
2021/11/22 05:27:20;;;;;;;4.45;1.13;;;3.00;99.90;;;;;;4987072;28;20041;-85
2021/11/22 05:29:46;;;;;;;5.97;2.13;;;3.00;99.90;;;;;;4990534;28;20041;-85
2021/11/22 05:32:17;;;;;;;7.38;1.17;;;3.00;99.90;;;;;;4995962;28;20498;-85
2021/11/22 05:34:44;;;;;;;5.22;1.50;;;2.90;99.90;;;;;;5016492;28;20030;-85
2021/11/22 05:37:10;;;;;;;4.03;1.10;;;2.90;99.90;;;;;;5010617;28;20034;-84
2021/11/22 05:39:37;;;;;;;13.32;5.38;;;2.90;99.90;;;;;;5027028;28;20040;-85
2021/11/22 05:42:03;;;;;;;5.93;1.60;;;2.80;99.90;;;;;;5014059;28;20101;-85
2021/11/22 05:44:31;;;;;;;5.80;1.38;;;2.80;99.90;;;;;;5017842;28;20030;-84
2021/11/22 05:46:57;;;;;;;3.50;1.60;;;2.80;99.90;;;;;;5029425;28;20042;-85
2021/11/22 05:49:23;;;;;;;6.88;1.42;;;2.80;99.90;;;;;;5007849;28;20033;-85
2021/11/22 05:51:49;;;;;;;3.30;1.50;;;2.80;99.90;;;;;;5017876;28;20053;-85
2021/11/22 05:54:15;;;;;;;3.30;1.25;;;2.70;99.90;;;;;;5028530;28;20061;-85
2021/11/22 05:56:42;;;;;;;6.10;1.40;;;2.70;99.90;;;;;;5008977;28;20033;-85
2021/11/22 05:59:08;;;;;;;2.83;1.13;;;2.70;99.90;;;;;;5014129;28;20025;-85
2021/11/22 06:01:34;;;;;;;4.68;1.30;;;2.70;99.90;;;;;;5031356;28;20014;-85
2021/11/22 06:03:59;;;;;;;2.85;1.08;;;2.70;99.90;;;;;;5026933;28;20042;-85
2021/11/22 06:06:25;;;;;;;6.85;1.42;;;2.60;99.90;;;;;;5028489;28;20041;-85
2021/11/22 06:08:50;;;;;;;6.30;2.40;;;2.40;99.90;;;;;;5017943;28;20038;-85
2021/11/22 06:11:16;;;;;;;4.57;1.20;;;2.60;99.90;;;;;;5011589;28;20526;-85
2021/11/22 06:13:42;;;;;;;2.92;1.40;;;2.60;99.90;;;;;;5008657;28;20041;-85
2021/11/22 06:16:07;;;;;;;4.60;1.15;;;2.50;99.90;;;;;;5009822;28;20087;-85
2021/11/22 06:18:33;;;;;;;5.50;1.25;;;2.50;99.90;;;;;;5010326;28;20037;-85
2021/11/22 06:20:58;;;;;;;4.03;1.30;;;2.50;99.90;;;;;;4993051;28;20107;-85
2021/11/22 06:23:24;;;;;;;5.07;1.35;;;2.50;99.90;;;;;;4993329;28;20398;-84
2021/11/22 06:25:50;;;;;;;3.50;1.30;;;2.50;99.90;;;;;;5004301;28;20041;-85
2021/11/22 06:28:15;;;;;;;6.32;1.45;;;2.50;99.90;;;;;;5004215;28;20045;-85
2021/11/22 06:30:41;;;;;;;2.08;1.20;;;2.50;99.90;;;;;;5011340;28;20052;-85
2021/11/22 06:33:07;;;;;;;6.65;1.73;;;2.50;99.90;;;;;;5007471;28;20033;-85
2021/11/22 06:35:34;;;;;;;2.28;1.02;;;2.50;99.90;;;;;;4990637;28;20048;-85
2021/11/22 06:38:01;;;;;;;4.65;1.35;;;2.50;99.90;;;;;;5001562;28;20041;-85
2021/11/22 06:40:27;;;;;;;6.82;1.70;;;2.50;99.90;;;;;;5009548;28;20404;-85
2021/11/22 06:42:52;;;;;;;4.13;1.55;;;2.40;99.90;;;;;;4999526;28;20033;-84
2021/11/22 06:45:18;;;;;;;6.85;1.63;;;2.40;99.90;;;;;;4993567;28;20033;-86
2021/11/22 06:47:44;;;;;;;6.40;2.00;;;2.40;99.90;;;;;;5003596;28;20427;-86
2021/11/22 06:50:11;;;;;;;7.78;1.90;;;2.40;99.90;;;;;;5004267;28;20129;-89
2021/11/22 06:52:36;;;;;;;6.97;1.98;;;2.40;99.90;;;;;;5001709;28;20041;-91
2021/11/22 06:55:03;;;;;;;7.68;2.20;;;2.30;99.90;;;;;;4994496;28;20561;-86
2021/11/22 06:57:29;;;;;;;4.13;2.00;;;2.30;99.90;;;;;;5005723;28;20037;-86
2021/11/22 06:59:55;;;;;;;5.88;2.35;;;2.30;99.90;;;;;;4999684;28;20041;-87
2021/11/22 07:02:24;;;;;;;5.10;2.00;;;2.30;99.90;;;;;;4983934;28;20120;-86
2021/11/22 07:04:50;;;;;;;6.50;1.90;;;2.30;99.90;;;;;;4990880;28;20515;-84
2021/11/22 07:07:16;;;;;;;6.05;2.03;;;2.30;99.90;;;;;;5009091;28;20042;-84
2021/11/22 07:09:42;;;;;;;5.30;1.90;;;2.30;99.90;;;;;;5002904;28;20084;-84
2021/11/22 07:12:08;;;;;;;3.63;1.67;;;2.30;99.90;;;;;;4991357;28;20068;-84
2021/11/22 07:14:36;;;;;;;6.70;2.00;;;2.30;99.90;;;;;;4993189;28;20076;-84
2021/11/22 07:17:02;;;;;;;8.85;2.15;;;2.30;99.90;;;;;;5013096;28;20037;-84
2021/11/22 07:19:27;;;;;;;5.20;1.88;;;2.20;99.90;;;;;;5006138;28;20098;-84
2021/11/22 07:21:53;;;;;;;7.70;1.80;;;2.30;99.90;;;;;;4989815;28;20069;-85
2021/11/22 07:24:20;;;;;;;5.30;1.63;;;2.30;99.90;;;;;;4991564;28;20069;-84
2021/11/22 07:26:45;;;;;;;6.80;2.10;;;2.30;99.90;;;;;;4988788;28;20069;-84
2021/11/22 07:29:15;;;;;;;4.47;1.80;;;2.30;99.90;;;;;;5005761;28;20054;-82
2021/11/22 07:31:41;;;;;;;6.03;1.88;;;2.20;99.90;;;;;;5017670;28;20037;-86
2021/11/22 07:34:06;;;;;;;6.47;1.80;;;2.20;99.90;;;;;;5017209;28;20105;-86
2021/11/22 07:36:32;;;;;;;3.90;1.98;;;2.20;99.90;;;;;;5029271;28;20042;-86
2021/11/22 07:38:58;;;;;;;4.90;2.17;;;2.10;99.90;;;;;;5032261;28;20060;-86
2021/11/22 07:41:24;;;;;;;7.47;2.08;;;2.10;99.90;;;;;;5029940;28;20017;-86
2021/11/22 07:43:49;;;;;;;4.20;1.50;;;2.10;99.90;;;;;;5033860;28;20037;-85
2021/11/22 07:46:15;;;;;;;4.07;1.50;;;2.10;99.90;;;;;;5023394;28;20029;-86
2021/11/22 07:48:40;;;;;;;5.80;1.20;;;2.00;99.90;;;;;;5021757;28;20049;-85
2021/11/22 07:51:06;;;;;;;5.97;1.45;;;1.90;99.90;;;;;;5014472;28;20025;-86
2021/11/22 07:53:32;;;;;;;2.72;1.20;;;1.80;99.90;;;;;;5018911;28;20034;-87
2021/11/22 07:55:58;;;;;;;5.07;1.60;;;1.80;99.90;;;;;;5006669;28;20049;-85
2021/11/22 07:58:25;;;;;;;8.55;2.13;;;1.80;99.90;;;;;;5009950;28;20038;-89
2021/11/22 08:00:51;;;;;;;10.57;2.05;;;1.90;99.90;;;;;;4991584;28;20054;-88
2021/11/22 08:03:16;;;;;;;6.05;1.88;;;1.90;99.90;;;;;;4985442;28;20061;-87
2021/11/22 08:05:43;;;;;;;6.45;1.83;;;1.90;99.90;;;;;;4983584;28;20065;-87
2021/11/22 08:08:08;;;;;;;7.22;2.00;;;1.90;99.90;;;;;;5003563;28;20551;-87
2021/11/22 08:10:36;;;;;;;8.32;2.00;;;1.90;99.90;;;;;;4982898;28;20128;-85
2021/11/22 08:13:07;;;;;;;4.25;1.52;;;2.00;99.90;;;;;;5005669;28;20042;-86
2021/11/22 08:15:34;;;;;;;5.03;1.73;;;2.00;99.90;;;;;;5002435;28;20500;-86
2021/11/22 08:18:03;;;;;;;6.35;1.50;;;2.00;99.90;;;;;;5000412;28;20033;-84
2021/11/22 08:20:29;;;;;;;4.53;1.20;;;2.00;99.90;;;;;;5005618;28;20439;-87
2021/11/22 08:22:55;;;;;;;4.78;1.50;;;2.00;99.90;;;;;;4999143;28;20029;-86
2021/11/22 08:25:23;;;;;;;3.33;1.15;;;2.00;99.90;;;;;;5030432;28;20056;-85
2021/11/22 08:27:52;;;;;;;5.55;1.40;;;2.00;99.90;;;;;;5028554;28;20041;-85
2021/11/22 08:30:18;;;;;;;4.78;1.45;;;2.00;99.90;;;;;;5038755;28;20063;-86
2021/11/22 08:32:48;;;;;;;3.97;1.27;;;2.00;99.90;;;;;;5029514;28;20037;-85
2021/11/22 08:35:15;;;;;;;4.30;1.20;;;2.00;99.90;;;;;;4997198;28;20036;-84
2021/11/22 08:37:41;;;;;;;2.17;1.00;;;2.10;99.90;;;;;;5023657;28;20037;-84
2021/11/22 08:40:11;;;;;;;9.68;1.60;;;2.10;99.90;;;;;;5036505;28;20036;-85
2021/11/22 08:42:36;;;;;;;4.68;1.52;;;2.20;99.90;;;;;;5037171;28;20091;-84
2021/11/22 08:45:04;;;;;;;4.43;1.35;;;2.30;99.90;;;;;;5035201;28;20029;-85
2021/11/22 08:47:30;;;;;;;7.45;1.60;;;2.40;99.90;;;;;;5014063;28;20041;-84
2021/11/22 08:49:55;;;;;;;5.28;1.35;;;2.60;99.90;;;;;;5035614;28;20044;-84
2021/11/22 08:52:23;;;;;;;6.93;1.40;;;2.70;99.90;;;;;;5020953;28;20072;-85
2021/11/22 08:54:49;;;;;;;4.75;1.60;;;2.80;99.90;;;;;;5031110;28;20037;-85
2021/11/22 08:57:16;;;;;;;10.63;2.40;;;3.00;99.90;;;;;;5019887;28;20034;-84
2021/11/22 08:59:41;;;;;;;3.90;1.45;;;3.10;99.90;;;;;;4989239;28;20476;-84
2021/11/22 09:02:08;;;;;;;6.65;1.70;;;3.30;99.90;;;;;;4997398;28;20079;-84
2021/11/22 09:04:34;;;;;;;6.38;1.65;;;3.30;99.90;;;;;;4982642;28;20377;-84
2021/11/22 09:07:00;;;;;;;8.15;2.05;;;3.40;99.90;;;;;;4989696;28;20087;-84
2021/11/22 09:09:26;;;;;;;4.45;1.40;;;3.50;99.90;;;;;;4995307;28;20038;-84
2021/11/22 09:11:51;;;;;;;7.85;1.55;;;3.60;99.90;;;;;;4989717;28;20499;-84
2021/11/22 09:14:17;;;;;;;3.33;1.50;;;3.70;99.90;;;;;;5007797;28;20065;-83
2021/11/22 09:16:43;;;;;;;5.07;1.80;;;3.70;99.90;;;;;;4996141;28;20034;-84
2021/11/22 09:19:09;;;;;;;4.35;1.77;;;3.80;99.90;;;;;;4996415;28;20450;-84
2021/11/22 09:21:35;;;;;;;6.40;2.22;;;4.00;99.90;;;;;;5008984;28;20049;-84
2021/11/22 09:24:02;;;;;;;7.45;2.00;;;4.10;99.90;;;;;;5021281;28;20049;-84
2021/11/22 09:26:29;;;;;;;4.88;2.22;;;4.20;99.90;;;;;;5017558;28;20034;-84
2021/11/22 09:28:55;;;;;;;6.00;1.80;;;4.20;99.90;;;;;;5026727;28;20049;-84
2021/11/22 09:31:21;;;;;;;5.72;2.28;;;4.30;99.90;;;;;;4997651;28;20041;-84
2021/11/22 09:33:50;;;;;;;6.20;2.00;;;4.40;99.90;;;;;;4999867;28;20103;-84
2021/11/22 09:36:16;;;;;;;7.07;1.80;;;4.50;99.90;;;;;;4983540;28;20038;-84
2021/11/22 09:38:41;;;;;;;8.52;1.73;;;4.60;99.90;;;;;;5010211;28;20037;-84
2021/11/22 09:41:08;;;;;;;3.92;1.35;;;4.60;99.90;;;;;;5010264;28;20045;-85
2021/11/22 09:43:34;;;;;;;7.05;1.85;;;4.70;99.90;;;;;;4997071;28;20037;-84
2021/11/22 09:46:00;;;;;;;9.27;1.75;;;4.80;99.90;;;;;;5030258;28;20112;-84
2021/11/22 09:48:26;;;;;;;6.85;1.70;;;4.90;99.90;;;;;;5010057;28;20510;-84
2021/11/22 09:50:52;;;;;;;6.20;1.55;;;5.00;99.90;;;;;;5013903;28;20083;-84
2021/11/22 09:53:19;;;;;;;7.20;1.70;;;5.00;99.90;;;;;;4988934;28;20117;-84
2021/11/22 09:55:45;;;;;;;3.65;1.25;;;5.10;99.90;;;;;;5005400;28;20427;-85
2021/11/22 09:58:12;;;;;;;4.75;1.42;;;5.20;99.90;;;;;;5011749;28;20056;-85
2021/11/22 10:00:42;;;;;;;6.05;1.85;;;5.20;99.90;;;;;;5009366;28;20038;-86
2021/11/22 10:03:11;;;;;;;4.15;1.50;;;5.30;99.90;;;;;;5021062;28;20052;-84
2021/11/22 10:05:38;;;;;;;3.75;1.35;;;5.40;99.90;;;;;;5026894;28;20052;-83
2021/11/22 10:08:11;;;;;;;5.50;1.48;;;5.40;99.90;;;;;;5014959;28;20048;-84
2021/11/22 10:10:44;;;;;;;6.72;1.73;;;5.40;99.90;;;;;;5035819;28;20091;-86
2021/11/22 10:13:30;;;;;;;6.32;1.52;;;5.50;99.90;;;;;;5034761;28;20546;-84
2021/11/22 10:16:00;;;;;;;6.32;1.50;;;5.50;99.90;;;;;;5018057;28;20041;-84
2021/11/22 10:18:29;;;;;;;4.00;1.35;;;5.60;99.90;;;;;;5013930;28;20160;-83
2021/11/22 10:20:56;;;;;;;4.35;1.60;;;5.70;99.90;;;;;;5032268;28;20045;-85
2021/11/22 10:23:25;;;;;;;7.82;1.48;;;5.80;99.90;;;;;;5011982;28;20038;-84
2021/11/22 10:25:53;;;;;;;7.60;1.50;;;5.80;99.90;;;;;;5020043;28;20034;-84
2021/11/22 10:28:26;;;;;;;3.97;1.52;;;5.90;99.90;;;;;;5014971;28;20089;-85
2021/11/22 10:30:58;;;;;;;3.40;1.58;;;5.90;99.90;;;;;;5019566;28;20061;-84
2021/11/22 10:33:35;;;;;;;4.20;1.30;;;6.00;99.90;;;;;;5005301;28;20071;-84
2021/11/22 10:36:05;;;;;;;6.55;1.13;;;6.10;99.90;;;;;;5001444;28;20038;-84
2021/11/22 10:38:33;;;;;;;3.28;0.98;;;6.10;99.90;;;;;;4984884;28;20053;-84
2021/11/22 10:41:06;;;;;;;4.95;1.00;;;6.10;99.90;;;;;;4995186;28;20440;-84
2021/11/22 10:43:49;;;;;;;7.93;1.00;;;6.20;99.90;;;;;;5004351;28;20048;-83
2021/11/22 10:46:17;;;;;;;8.75;1.45;;;6.40;99.90;;;;;;5004404;28;20083;-85
2021/11/22 10:48:49;;;;;;;7.10;2.30;;;6.40;99.90;;;;;;5010844;28;20499;-84
2021/11/22 10:51:19;;;;;;;5.50;1.20;;;6.50;99.90;;;;;;4992638;28;20045;-83
2021/11/22 10:53:48;;;;;;;6.72;1.25;;;6.60;99.90;;;;;;4994835;28;20049;-84
2021/11/22 10:56:17;;;;;;;3.33;0.98;;;6.60;99.90;;;;;;4985119;28;20065;-84
2021/11/22 10:58:55;;;;;;;1.50;0.85;;;6.60;99.90;;;;;;5000231;28;20562;-83
2021/11/22 11:01:28;;;;;;;6.13;2.00;;;6.70;99.90;;;;;;5026322;28;20026;-84
2021/11/22 11:04:12;;;;;;;2.53;1.02;;;6.70;99.90;;;;;;5037143;28;20105;-85
2021/11/22 11:06:53;;;;;;;2.00;0.80;;;6.70;99.90;;;;;;5029316;28;20101;-84
2021/11/22 11:09:29;;;;;;;4.15;0.88;;;6.70;99.90;;;;;;5015865;28;20041;-83
2021/11/22 11:12:09;;;;;;;5.70;1.05;;;6.80;99.90;;;;;;5004554;28;20144;-83
2021/11/22 11:14:38;;;;;;;5.43;1.00;;;6.90;99.70;;;;;;5011192;28;20068;-83
2021/11/22 11:17:15;;;;;;;4.95;0.73;;;6.90;99.90;;;;;;4997199;28;20068;-84
2021/11/22 11:19:42;;;;;;;6.72;0.95;;;7.00;99.90;;;;;;5005662;28;20042;-84
2021/11/22 11:22:08;;;;;;;7.55;0.98;;;7.00;99.90;;;;;;4996247;28;20034;-84
2021/11/22 11:24:35;;;;;;;5.22;1.02;;;7.00;99.90;;;;;;4981306;28;20045;-84
2021/11/22 11:27:00;;;;;;;4.15;0.80;;;7.10;98.70;;;;;;4999350;28;20045;-84
2021/11/22 11:29:26;;;;;;;6.38;2.25;;;7.10;98.40;;;;;;5003082;28;20042;-84
2021/11/22 11:31:51;;;;;;;3.58;0.70;;;7.20;99.50;;;;;;5013357;28;20456;-84
2021/11/22 11:34:17;;;;;;;3.35;0.80;;;7.20;99.90;;;;;;4991115;28;20037;-84
2021/11/22 11:36:43;;;;;;;5.15;0.90;;;7.20;99.90;;;;;;5001167;28;20042;-84
2021/11/22 11:39:46;;;;;;;3.15;0.82;;;7.20;99.90;;;;;;5012808;28;20044;-84
2021/11/22 11:42:44;;;;;;;2.25;0.82;;;7.20;99.90;;;;;;5013930;28;20037;-84
2021/11/22 11:45:21;;;;;;;3.03;0.75;;;7.30;99.90;;;;;;5002504;28;20401;-84
2021/11/22 11:47:56;;;;;;;2.55;0.90;;;7.30;99.90;;;;;;5012466;28;20467;-84
2021/11/22 11:50:28;;;;;;;4.20;0.70;;;7.40;99.90;;;;;;4984951;28;20045;-84
2021/11/22 11:53:04;;;;;;;3.40;0.73;;;7.40;99.90;;;;;;4997537;28;20095;-84
2021/11/22 11:55:31;;;;;;;3.42;0.85;;;7.40;99.90;;;;;;5005811;28;20504;-84
2021/11/22 11:58:15;;;;;;;4.20;1.48;;;7.50;99.90;;;;;;4992697;28;20100;-84
2021/11/22 12:01:06;;;;;;;6.30;2.03;;;7.50;97.50;;;;;;4999057;28;20045;-84
2021/11/22 12:04:00;;;;;;;3.95;1.17;;;7.60;98.10;;;;;;4988328;28;20096;-83
2021/11/22 12:06:51;;;;;;;1.98;0.63;;;7.60;97.40;;;;;;5002645;28;20046;-84
2021/11/22 12:09:26;;;;;;;3.80;1.05;;;7.60;97.80;;;;;;4987161;28;20030;-84
2021/11/22 12:11:51;;;;;;;4.38;0.75;;;7.60;98.30;;;;;;5001054;28;20042;-84
2021/11/22 12:14:49;;;;;;;5.25;0.60;;;7.70;98.60;;;;;;4997817;28;20037;-84
2021/11/22 12:17:33;;;;;;;3.05;0.98;;;7.70;93.10;;;;;;4983334;28;20120;-84
2021/11/22 12:20:07;;;;;;;2.97;0.60;;;7.70;95.80;;;;;;5005223;28;20098;-83
2021/11/22 12:22:40;;;;;;;5.28;0.90;;;7.80;97.00;;;;;;5005160;28;20044;-84
2021/11/22 12:25:08;;;;;;;2.65;0.60;;;7.80;96.90;;;;;;4988285;28;20046;-84
2021/11/22 12:27:33;;;;;;;2.63;0.70;;;7.80;96.90;;;;;;5003721;28;20091;-84
2021/11/22 12:30:21;;;;;;;2.50;0.80;;;7.90;96.80;;;;;;4979140;28;20042;-84
2021/11/22 12:32:46;;;;;;;4.55;0.90;;;7.90;96.30;;;;;;5010579;28;20037;-84
2021/11/22 12:35:12;;;;;;;5.20;0.90;;;7.90;96.50;;;;;;4991344;28;20033;-84
2021/11/22 12:37:37;;;;;;;3.83;0.70;;;7.90;97.10;;;;;;4993816;28;20074;-84
2021/11/22 12:40:12;;;;;;;2.40;0.73;;;7.90;96.90;;;;;;5005632;28;20041;-84
2021/11/22 12:42:48;;;;;;;6.30;1.25;;;7.90;96.50;;;;;;4995924;28;20038;-84
2021/11/22 12:45:16;;;;;;;3.92;1.10;;;7.90;97.10;;;;;;5001215;28;20392;-83
2021/11/22 12:47:41;;;;;;;4.60;1.13;;;7.90;96.90;;;;;;5002131;28;20041;-83
2021/11/22 12:50:19;;;;;;;4.00;1.45;;;8.00;96.30;;;;;;4989047;28;20056;-84
2021/11/22 12:53:06;;;;;;;3.53;0.80;;;8.00;96.30;;;;;;5000741;28;20045;-84
2021/11/22 12:55:38;;;;;;;5.85;1.33;;;8.00;97.30;;;;;;5002389;28;20437;-84
2021/11/22 12:58:09;;;;;;;;;;;8.10;97.30;;;;;;4984145;28;20033;-84
2021/11/22 13:00:37;;;;;;;3.85;0.90;;;8.10;97.00;;;;;;5004880;28;20088;-84